Time;durP1;ratioP1;P1;durP2;ratioP2;P2;SDS_P1;SDS_P2;PMS_P1;PMS_P2;Temp;Humidity;BMP_temperature;BMP_pressure;BME280_temperature;BME280_humidity;BME280_pressure;Samples;Min_cycle;Max_cycle;Signal;HPM_P1;HPM_P2
2023/03/19 00:02:13;;;;;;;17.37;12.23;;;7.10;93.50;;;;;;5028208;28;20886;-52
2023/03/19 00:04:40;;;;;;;16.50;11.00;;;7.00;97.90;;;;;;5034393;28;20846;-52
2023/03/19 00:07:06;;;;;;;15.17;11.17;;;7.00;99.40;;;;;;5027594;28;20526;-52
2023/03/19 00:09:33;;;;;;;13.13;11.57;;;7.00;99.90;;;;;;5031772;28;20463;-52
2023/03/19 00:12:01;;;;;;;18.43;11.80;;;7.00;99.00;;;;;;5032035;28;20521;-53
2023/03/19 00:14:28;;;;;;;14.27;11.17;;;7.00;98.70;;;;;;5024168;28;20471;-52
2023/03/19 00:16:54;;;;;;;15.03;11.80;;;6.90;99.50;;;;;;5033936;28;20483;-52
2023/03/19 00:19:21;;;;;;;14.77;10.53;;;6.90;98.80;;;;;;5033862;28;20464;-52
2023/03/19 00:21:48;;;;;;;15.70;11.70;;;6.90;96.40;;;;;;5032962;28;20549;-52
2023/03/19 00:24:16;;;;;;;16.33;11.90;;;6.90;96.90;;;;;;5033546;28;20613;-53
2023/03/19 00:26:43;;;;;;;19.83;11.40;;;6.90;96.40;;;;;;5037622;28;20477;-51
2023/03/19 00:29:11;;;;;;;16.70;11.87;;;6.90;94.10;;;;;;5025169;28;20467;-52
2023/03/19 00:31:38;;;;;;;14.00;11.97;;;6.80;95.00;;;;;;5033895;28;20474;-53
2023/03/19 00:34:05;;;;;;;19.50;11.93;;;6.80;94.10;;;;;;5032432;28;20534;-52
2023/03/19 00:36:31;;;;;;;17.37;12.33;;;6.80;93.80;;;;;;5034438;28;20438;-53
2023/03/19 00:38:58;;;;;;;17.70;12.50;;;6.80;95.80;;;;;;5033956;28;20486;-52
2023/03/19 00:41:25;;;;;;;17.60;11.43;;;6.80;96.40;;;;;;5035587;28;20456;-52
2023/03/19 00:43:56;;;;;;;14.23;11.83;;;6.70;94.00;;;;;;5033353;28;20465;-53
2023/03/19 00:46:26;;;;;;;12.20;10.90;;;6.70;94.60;;;;;;5034264;28;20463;-52
2023/03/19 00:48:54;;;;;;;15.07;12.27;;;6.70;93.20;;;;;;5024515;28;20840;-52
2023/03/19 00:51:21;;;;;;;16.73;11.87;;;6.70;93.80;;;;;;5026463;28;20460;-54
2023/03/19 00:53:48;;;;;;;15.23;11.73;;;6.70;91.30;;;;;;5029922;28;20978;-54
2023/03/19 00:56:17;;;;;;;17.30;12.10;;;6.70;91.70;;;;;;5033118;28;20446;-53
2023/03/19 00:58:44;;;;;;;16.67;12.03;;;6.60;93.10;;;;;;5032663;28;20482;-53
2023/03/19 01:01:12;;;;;;;16.70;12.40;;;6.60;94.60;;;;;;5032587;28;20469;-52
2023/03/19 01:03:40;;;;;;;20.83;11.93;;;6.60;93.10;;;;;;5024492;28;20557;-52
2023/03/19 01:06:07;;;;;;;14.57;11.97;;;6.60;92.50;;;;;;5032406;28;20890;-53
2023/03/19 01:08:34;;;;;;;14.93;11.50;;;6.60;93.00;;;;;;5032102;28;20471;-52
2023/03/19 01:11:05;;;;;;;18.83;12.00;;;6.50;95.00;;;;;;5033429;28;20498;-53
2023/03/19 01:13:32;;;;;;;19.10;10.87;;;6.60;95.00;;;;;;5033128;28;20541;-52
2023/03/19 01:15:59;;;;;;;11.83;10.60;;;6.60;95.10;;;;;;5033433;28;20443;-52
2023/03/19 01:18:26;;;;;;;14.13;11.03;;;6.60;97.60;;;;;;5031876;28;20570;-53
2023/03/19 01:20:54;;;;;;;14.20;11.63;;;6.60;99.90;;;;;;5030724;28;20463;-52
2023/03/19 01:23:20;;;;;;;16.03;11.90;;;6.50;99.90;;;;;;5034730;28;20973;-52
2023/03/19 01:25:47;;;;;;;17.37;11.80;;;6.50;99.90;;;;;;5032694;28;20528;-52
2023/03/19 01:28:14;;;;;;;18.57;12.70;;;6.50;99.90;;;;;;5032775;28;20550;-52
2023/03/19 01:30:40;;;;;;;16.20;12.17;;;6.50;99.90;;;;;;5033465;28;20539;-53
2023/03/19 01:33:07;;;;;;;15.37;11.93;;;6.50;99.90;;;;;;5035559;28;20486;-52
2023/03/19 01:35:34;;;;;;;19.70;13.80;;;6.50;99.90;;;;;;5034569;28;20526;-53
2023/03/19 01:38:02;;;;;;;14.07;12.27;;;6.50;99.90;;;;;;5034384;28;20521;-53
2023/03/19 01:40:30;;;;;;;15.03;12.07;;;6.60;99.90;;;;;;5025625;28;20467;-53
2023/03/19 01:43:12;;;;;;;19.50;12.30;;;6.70;99.90;;;;;;5034621;28;20463;-53
2023/03/19 01:45:41;;;;;;;13.83;12.13;;;6.70;99.90;;;;;;5035071;28;20558;-52
2023/03/19 01:48:18;;;;;;;16.80;12.50;;;6.60;99.90;;;;;;5034765;28;20483;-52
2023/03/19 01:50:49;;;;;;;16.47;12.70;;;6.70;99.90;;;;;;5034629;28;20460;-52
2023/03/19 01:53:20;;;;;;;18.60;13.73;;;6.70;99.90;;;;;;5040768;28;20463;-52
2023/03/19 01:55:47;;;;;;;15.60;12.67;;;6.80;99.90;;;;;;5042410;28;20493;-58
2023/03/19 01:58:14;;;;;;;18.53;12.50;;;6.90;99.90;;;;;;5042714;28;20540;-54
2023/03/19 02:00:41;;;;;;;18.53;13.13;;;6.90;99.90;;;;;;5034732;28;21021;-52
2023/03/19 02:03:08;;;;;;;18.43;13.43;;;6.90;99.90;;;;;;5030716;28;20467;-52
2023/03/19 02:05:37;;;;;;;17.33;13.57;;;6.90;99.90;;;;;;5027347;28;20464;-53
2023/03/19 02:08:07;;;;;;;14.33;11.80;;;6.90;99.90;;;;;;5032540;28;20484;-52
2023/03/19 02:10:35;;;;;;;16.57;12.83;;;6.80;99.90;;;;;;5023405;28;20463;-52
2023/03/19 02:13:02;;;;;;;15.07;11.10;;;6.90;99.90;;;;;;5029424;28;20467;-53
2023/03/19 02:15:29;;;;;;;19.57;12.80;;;6.90;99.90;;;;;;5032259;28;20451;-53
2023/03/19 02:17:56;;;;;;;16.70;11.73;;;6.90;99.90;;;;;;5038720;28;20487;-53
2023/03/19 02:20:30;;;;;;;15.07;12.43;;;6.80;99.90;;;;;;5030294;28;20463;-53
2023/03/19 02:23:06;;;;;;;13.40;11.20;;;6.90;99.90;;;;;;5028800;28;20971;-52
2023/03/19 02:25:41;;;;;;;16.10;11.60;;;6.90;99.90;;;;;;5022820;28;20474;-53
2023/03/19 02:28:09;;;;;;;14.33;11.70;;;6.90;99.90;;;;;;5033274;28;20629;-52
2023/03/19 02:30:37;;;;;;;19.07;12.83;;;6.90;99.90;;;;;;5029171;28;20459;-52
2023/03/19 02:33:03;;;;;;;16.53;11.67;;;6.90;99.90;;;;;;5029612;28;20463;-53
2023/03/19 02:35:33;;;;;;;15.30;12.17;;;7.00;99.90;;;;;;5024209;28;20467;-53
2023/03/19 02:38:02;;;;;;;14.23;11.40;;;7.10;99.90;;;;;;5024278;28;20479;-52
2023/03/19 02:40:34;;;;;;;19.97;13.20;;;7.10;99.90;;;;;;5028940;28;20493;-53
2023/03/19 02:43:00;;;;;;;14.87;11.40;;;7.20;99.90;;;;;;5029225;28;20879;-53
2023/03/19 02:45:31;;;;;;;15.03;11.47;;;7.30;99.90;;;;;;5027446;28;20495;-53
2023/03/19 02:47:58;;;;;;;17.13;12.07;;;7.40;99.90;;;;;;5029807;28;20487;-53
2023/03/19 02:50:25;;;;;;;13.63;11.27;;;7.50;99.90;;;;;;5028347;28;20509;-52
2023/03/19 02:52:51;;;;;;;18.93;11.80;;;7.70;21.40;;;;;;5025861;28;20496;-53
2023/03/19 02:55:18;;;;;;;21.00;13.07;;;7.70;29.60;;;;;;5021623;28;20464;-53
2023/03/19 02:57:45;;;;;;;23.70;11.77;;;7.70;36.60;;;;;;5028641;28;20515;-52
2023/03/19 03:00:13;;;;;;;16.90;11.60;;;7.80;52.00;;;;;;5028634;28;20491;-53
2023/03/19 03:02:41;;;;;;;14.33;11.03;;;7.80;70.20;;;;;;5025246;28;21036;-52
2023/03/19 03:05:09;;;;;;;19.00;12.87;;;7.90;99.90;;;;;;5025940;28;20968;-53
2023/03/19 03:07:35;;;;;;;15.43;11.03;;;7.90;99.90;;;;;;5029059;28;20541;-52
2023/03/19 03:10:02;;;;;;;15.33;11.87;;;7.80;97.40;;;;;;5024741;28;20505;-53
2023/03/19 03:12:28;;;;;;;17.17;12.53;;;7.80;99.90;;;;;;5029143;28;20468;-53
2023/03/19 03:14:55;;;;;;;15.63;11.90;;;7.70;99.90;;;;;;5030488;28;20459;-52
2023/03/19 03:17:22;;;;;;;21.70;12.07;;;7.70;99.90;;;;;;5056715;22;20496;-50
2023/03/19 03:19:50;;;;;;;17.40;13.40;;;7.80;99.90;;;;;;5078718;28;20965;-49
2023/03/19 03:22:16;;;;;;;19.93;11.23;;;7.80;99.90;;;;;;5075502;28;20483;-51
2023/03/19 03:24:43;;;;;;;13.87;11.83;;;7.80;99.90;;;;;;5078251;28;20496;-50
2023/03/19 03:27:10;;;;;;;19.83;12.70;;;7.80;99.90;;;;;;5089624;28;20499;-49
2023/03/19 03:29:36;;;;;;;16.13;12.17;;;7.80;99.90;;;;;;5052490;28;20882;-49
2023/03/19 03:32:03;;;;;;;15.03;11.30;;;7.80;99.90;;;;;;5058337;28;20898;-49
2023/03/19 03:34:30;;;;;;;16.47;11.63;;;7.80;99.90;;;;;;5059020;28;20488;-50
2023/03/19 03:36:58;;;;;;;14.80;11.27;;;7.80;99.90;;;;;;5061037;28;20509;-50
2023/03/19 03:39:24;;;;;;;15.43;11.70;;;7.80;99.90;;;;;;5069668;28;20520;-50
2023/03/19 03:41:51;;;;;;;27.90;12.03;;;7.80;99.90;;;;;;5080737;28;20494;-49
2023/03/19 03:44:18;;;;;;;16.90;11.60;;;7.80;99.90;;;;;;5063707;28;20959;-50
2023/03/19 03:46:44;;;;;;;21.30;11.80;;;7.80;99.90;;;;;;5081972;28;20490;-50
2023/03/19 03:49:11;;;;;;;17.90;13.50;;;7.80;99.90;;;;;;5069415;28;20485;-50
2023/03/19 03:51:37;;;;;;;16.93;12.27;;;7.70;99.90;;;;;;5075007;28;21284;-50
2023/03/19 03:54:06;;;;;;;14.23;11.30;;;7.80;99.90;;;;;;5067559;28;20896;-50
2023/03/19 03:56:33;;;;;;;14.53;11.40;;;7.80;99.90;;;;;;5072109;28;20465;-50
2023/03/19 03:59:00;;;;;;;18.40;13.10;;;7.80;99.90;;;;;;5062475;28;20485;-50
2023/03/19 04:01:27;;;;;;;19.10;12.67;;;7.80;99.90;;;;;;5065056;28;21016;-49
2023/03/19 04:03:54;;;;;;;21.97;11.10;;;7.80;99.90;;;;;;5064412;28;20825;-50
2023/03/19 04:06:22;;;;;;;15.37;11.40;;;7.80;99.90;;;;;;5067155;28;20574;-51
2023/03/19 04:08:49;;;;;;;18.30;12.77;;;7.80;99.90;;;;;;5071463;28;20481;-50
2023/03/19 04:11:17;;;;;;;12.67;11.03;;;7.80;99.90;;;;;;5090443;28;21324;-50
2023/03/19 04:13:44;;;;;;;14.20;11.43;;;7.70;99.70;;;;;;5062896;28;20793;-49
2023/03/19 04:16:11;;;;;;;12.43;11.03;;;7.70;98.60;;;;;;5059090;28;20465;-49
2023/03/19 04:18:38;;;;;;;14.80;11.90;;;7.70;99.90;;;;;;5078740;28;20632;-50
2023/03/19 04:21:06;;;;;;;15.77;11.40;;;7.60;99.80;;;;;;5062415;28;20513;-49
2023/03/19 04:23:33;;;;;;;18.70;11.87;;;7.60;95.50;;;;;;5074855;28;20461;-50
2023/03/19 04:26:00;;;;;;;13.50;11.03;;;7.60;87.70;;;;;;5072873;28;21027;-50
2023/03/19 04:28:29;;;;;;;24.63;11.37;;;7.60;67.20;;;;;;5074662;28;20537;-50
2023/03/19 04:30:59;;;;;;;16.10;11.13;;;7.60;61.50;;;;;;5079508;28;20465;-49
2023/03/19 04:33:26;;;;;;;15.83;11.40;;;7.50;73.90;;;;;;5077607;28;20474;-50
2023/03/19 04:35:53;;;;;;;15.63;11.53;;;7.50;74.50;;;;;;5068918;28;20505;-50
2023/03/19 04:38:20;;;;;;;12.87;10.87;;;7.50;67.90;;;;;;5076680;28;20517;-49
2023/03/19 04:40:47;;;;;;;19.23;12.50;;;7.50;62.80;;;;;;5064762;28;20511;-50
2023/03/19 04:43:14;;;;;;;14.93;11.30;;;7.50;60.20;;;;;;5061905;28;21017;-50
2023/03/19 04:45:42;;;;;;;15.03;11.03;;;7.50;37.40;;;;;;5061066;28;20890;-50
2023/03/19 04:48:09;;;;;;;15.47;11.20;;;7.50;80.70;;;;;;5056669;28;20510;-50
2023/03/19 04:50:35;;;;;;;17.60;11.23;;;7.40;99.90;;;;;;5064904;28;20807;-50
2023/03/19 04:53:02;;;;;;;14.10;11.20;;;7.40;99.90;;;;;;5068081;28;20454;-50
2023/03/19 04:55:29;;;;;;;12.97;10.03;;;7.20;99.90;;;;;;5073507;28;20476;-50
2023/03/19 04:57:55;;;;;;;15.10;10.40;;;7.20;99.90;;;;;;5057144;28;20521;-51
2023/03/19 05:00:22;;;;;;;14.73;11.10;;;7.20;99.90;;;;;;5057535;28;20482;-50
2023/03/19 05:02:50;;;;;;;14.13;10.80;;;7.10;99.90;;;;;;5061941;28;20498;-50
2023/03/19 05:05:17;;;;;;;14.33;10.83;;;7.10;99.90;;;;;;5060660;28;20493;-50
2023/03/19 05:07:43;;;;;;;14.23;11.67;;;7.10;99.90;;;;;;5072009;28;20480;-50
2023/03/19 05:10:11;;;;;;;19.30;11.73;;;7.10;99.90;;;;;;5086453;28;20488;-50
2023/03/19 05:12:37;;;;;;;16.47;13.10;;;7.10;99.90;;;;;;5068307;28;20489;-50
2023/03/19 05:15:05;;;;;;;21.23;13.20;;;7.10;99.90;;;;;;5056403;28;20520;-50
2023/03/19 05:17:32;;;;;;;18.37;12.40;;;7.10;99.90;;;;;;5056132;28;20490;-49
2023/03/19 05:20:00;;;;;;;17.40;12.57;;;7.20;99.90;;;;;;5066059;28;20492;-50
2023/03/19 05:22:26;;;;;;;24.40;14.07;;;7.20;99.90;;;;;;5085372;28;20868;-50
2023/03/19 05:24:53;;;;;;;17.80;12.47;;;7.20;99.90;;;;;;5074129;28;20502;-50
2023/03/19 05:27:20;;;;;;;17.83;12.63;;;7.30;99.90;;;;;;5056114;28;20518;-49
2023/03/19 05:29:47;;;;;;;13.50;11.30;;;7.30;99.90;;;;;;5060517;28;20481;-51
2023/03/19 05:32:14;;;;;;;16.10;11.77;;;7.30;99.90;;;;;;5063342;28;20507;-50
2023/03/19 05:34:41;;;;;;;27.80;15.63;;;7.30;99.90;;;;;;5071138;28;20465;-49
2023/03/19 05:37:09;;;;;;;24.93;16.60;;;7.30;99.90;;;;;;5066928;28;20513;-49
2023/03/19 05:39:35;;;;;;;26.03;20.17;;;7.40;99.90;;;;;;5087901;28;20505;-50
2023/03/19 05:42:02;;;;;;;24.00;20.10;;;7.40;98.30;;;;;;5076238;28;20465;-50
2023/03/19 05:44:29;;;;;;;29.80;18.30;;;7.40;94.90;;;;;;5077742;28;20983;-51
2023/03/19 05:46:56;;;;;;;18.17;14.83;;;7.40;90.50;;;;;;5071483;28;20523;-50
2023/03/19 05:49:22;;;;;;;19.70;13.20;;;7.30;86.40;;;;;;5060145;28;20839;-50
2023/03/19 05:51:49;;;;;;;18.67;13.20;;;7.30;82.60;;;;;;5064154;28;20508;-50
2023/03/19 05:54:17;;;;;;;16.13;12.97;;;7.30;78.70;;;;;;5061261;28;20493;-50
2023/03/19 05:56:43;;;;;;;13.97;12.17;;;7.30;73.60;;;;;;5075343;28;21027;-50
2023/03/19 05:59:10;;;;;;;16.40;13.20;;;7.30;68.70;;;;;;5067551;28;20996;-49
2023/03/19 06:01:36;;;;;;;14.70;12.00;;;7.20;67.40;;;;;;5067308;28;20974;-50
2023/03/19 06:04:03;;;;;;;18.73;12.77;;;7.30;64.70;;;;;;5061237;28;20497;-49
2023/03/19 06:06:30;;;;;;;16.73;12.43;;;7.30;62.70;;;;;;5062183;28;20468;-52
2023/03/19 06:08:57;;;;;;;15.87;11.60;;;7.20;60.80;;;;;;5062319;28;20533;-54
2023/03/19 06:11:25;;;;;;;18.30;12.83;;;7.30;58.40;;;;;;5063158;28;20521;-50
2023/03/19 06:13:51;;;;;;;16.60;12.43;;;7.30;56.00;;;;;;5065780;28;20539;-50
2023/03/19 06:16:18;;;;;;;18.07;13.27;;;7.40;54.60;;;;;;5060570;28;20977;-50
2023/03/19 06:18:45;;;;;;;15.43;12.17;;;7.40;53.10;;;;;;5071430;28;20526;-50
2023/03/19 06:21:12;;;;;;;13.57;11.80;;;7.50;52.00;;;;;;5077541;28;20538;-50
2023/03/19 06:23:39;;;;;;;16.80;11.13;;;7.50;51.30;;;;;;5082355;28;20468;-51
2023/03/19 06:26:06;;;;;;;13.27;11.63;;;7.50;50.70;;;;;;5059001;28;21069;-50
2023/03/19 06:28:35;;;;;;;16.93;11.73;;;7.50;50.20;;;;;;5066233;28;20516;-50
2023/03/19 06:31:01;;;;;;;14.27;10.67;;;7.60;49.40;;;;;;5067140;28;20461;-50
2023/03/19 06:33:31;;;;;;;19.63;12.50;;;7.70;48.70;;;;;;5074269;28;20493;-50
2023/03/19 06:35:57;;;;;;;15.43;12.00;;;7.70;48.00;;;;;;5065602;28;20474;-50
2023/03/19 06:38:25;;;;;;;12.60;11.13;;;7.80;47.10;;;;;;5077114;28;20487;-50
2023/03/19 06:40:52;;;;;;;12.20;10.90;;;7.80;46.90;;;;;;5090094;28;20485;-51
2023/03/19 06:43:18;;;;;;;13.57;11.30;;;7.80;46.90;;;;;;5079459;28;20501;-50
2023/03/19 06:45:46;;;;;;;12.93;10.40;;;7.80;46.50;;;;;;5057957;28;20485;-50
2023/03/19 06:48:13;;;;;;;16.93;11.37;;;7.80;46.50;;;;;;5069321;28;20486;-50
2023/03/19 06:50:40;;;;;;;13.03;10.80;;;7.80;46.20;;;;;;5081270;28;20484;-50
2023/03/19 06:53:06;;;;;;;12.37;11.07;;;7.90;45.90;;;;;;5073055;28;20457;-50
2023/03/19 06:55:33;;;;;;;12.03;9.90;;;7.90;45.40;;;;;;5086887;28;20481;-50
2023/03/19 06:57:59;;;;;;;12.80;11.47;;;7.90;45.00;;;;;;5062282;28;20853;-50
2023/03/19 07:00:26;;;;;;;17.90;12.33;;;7.90;44.50;;;;;;5076312;28;20537;-49
2023/03/19 07:02:54;;;;;;;13.33;11.03;;;7.90;44.00;;;;;;5075076;28;20984;-49
2023/03/19 07:05:21;;;;;;;15.50;11.43;;;7.90;43.90;;;;;;5079639;28;20464;-49
2023/03/19 07:07:48;;;;;;;12.20;10.57;;;7.90;43.90;;;;;;5054960;28;20505;-50
2023/03/19 07:10:14;;;;;;;14.00;10.97;;;7.90;44.30;;;;;;5081782;28;20485;-49
2023/03/19 07:12:41;;;;;;;13.23;10.87;;;7.90;44.90;;;;;;5081502;28;20446;-50
2023/03/19 07:15:08;;;;;;;17.90;10.77;;;7.90;45.30;;;;;;5072006;28;20890;-50
2023/03/19 07:17:35;;;;;;;15.10;11.43;;;7.90;46.10;;;;;;5073169;28;20493;-50
2023/03/19 07:20:03;;;;;;;15.37;11.80;;;7.90;46.00;;;;;;5078172;28;20512;-50
2023/03/19 07:22:30;;;;;;;16.93;13.20;;;7.90;45.70;;;;;;5079492;28;20458;-50
2023/03/19 07:24:56;;;;;;;15.53;11.80;;;7.90;46.70;;;;;;5081080;28;20530;-50
2023/03/19 07:27:23;;;;;;;15.20;12.67;;;7.80;47.30;;;;;;5075842;28;21021;-50
2023/03/19 07:29:50;;;;;;;15.07;11.40;;;7.80;47.90;;;;;;5070231;28;20558;-50
2023/03/19 07:32:16;;;;;;;12.40;10.87;;;7.90;50.20;;;;;;5078542;28;20934;-50
2023/03/19 07:34:43;;;;;;;17.70;12.03;;;7.90;51.00;;;;;;5076815;28;20897;-50
2023/03/19 07:37:11;;;;;;;30.10;22.00;;;8.00;51.10;;;;;;5071646;28;20516;-50
2023/03/19 07:39:37;;;;;;;15.17;12.83;;;8.00;52.50;;;;;;5077871;28;20481;-51
2023/03/19 07:42:04;;;;;;;16.40;12.87;;;8.00;52.40;;;;;;5085407;28;20491;-50
2023/03/19 07:44:31;;;;;;;18.00;15.37;;;8.00;52.60;;;;;;5067428;28;20496;-49
2023/03/19 07:46:57;;;;;;;20.00;11.20;;;8.00;52.90;;;;;;5068896;28;20523;-50
2023/03/19 07:49:25;;;;;;;15.00;11.80;;;8.00;56.00;;;;;;5073089;28;20520;-50
2023/03/19 07:51:51;;;;;;;12.60;10.80;;;8.20;57.40;;;;;;5083305;28;20457;-50
2023/03/19 07:54:20;;;;;;;12.83;10.50;;;8.20;57.20;;;;;;5074973;28;20499;-51
2023/03/19 07:56:46;;;;;;;15.83;8.80;;;8.20;56.20;;;;;;5081111;28;20564;-51
2023/03/19 07:59:13;;;;;;;12.70;8.57;;;8.30;56.70;;;;;;5067385;28;20489;-50
2023/03/19 08:01:40;;;;;;;12.33;9.33;;;8.30;56.00;;;;;;5077181;28;20482;-50
2023/03/19 08:04:06;;;;;;;13.83;8.77;;;8.30;56.80;;;;;;5061129;28;20442;-50
2023/03/19 08:06:33;;;;;;;20.30;14.50;;;8.40;56.70;;;;;;5064949;28;20486;-50
2023/03/19 08:09:00;;;;;;;10.83;9.43;;;8.50;56.60;;;;;;5073710;28;20481;-49
2023/03/19 08:11:28;;;;;;;14.83;12.03;;;8.60;56.40;;;;;;5066102;28;20489;-49
2023/03/19 08:13:55;;;;;;;12.10;8.30;;;8.60;55.20;;;;;;5077994;28;20547;-50
2023/03/19 08:16:21;;;;;;;9.20;7.67;;;8.70;54.80;;;;;;5074616;28;20457;-50
2023/03/19 08:18:48;;;;;;;8.77;7.83;;;8.70;54.20;;;;;;5066765;28;20496;-49
2023/03/19 08:21:15;;;;;;;10.20;7.60;;;8.70;54.30;;;;;;5085193;28;20485;-50
2023/03/19 08:23:41;;;;;;;8.70;7.77;;;8.70;53.90;;;;;;5073958;28;20474;-50
2023/03/19 08:26:08;;;;;;;8.63;7.73;;;8.70;53.90;;;;;;5076684;28;20488;-49
2023/03/19 08:28:36;;;;;;;8.80;7.93;;;8.80;54.00;;;;;;5076419;28;20530;-50
2023/03/19 08:31:07;;;;;;;9.03;7.47;;;8.80;54.30;;;;;;5085053;28;20461;-50
2023/03/19 08:33:34;;;;;;;10.00;7.97;;;8.80;54.70;;;;;;5062122;28;20507;-50
2023/03/19 08:36:06;;;;;;;8.50;7.67;;;8.90;55.80;;;;;;5070293;28;20449;-50
2023/03/19 08:38:33;;;;;;;8.80;7.90;;;8.90;55.50;;;;;;5074374;28;20485;-50
2023/03/19 08:41:01;;;;;;;10.70;8.33;;;8.90;55.90;;;;;;5057993;28;20485;-50
2023/03/19 08:43:28;;;;;;;12.50;9.87;;;8.90;54.80;;;;;;5060508;28;22342;-50
2023/03/19 08:45:56;;;;;;;11.43;9.37;;;9.00;54.80;;;;;;5079377;28;20830;-50
2023/03/19 08:48:23;;;;;;;10.50;9.07;;;9.00;55.50;;;;;;5066840;28;20514;-50
2023/03/19 08:50:53;;;;;;;12.33;9.37;;;9.00;55.10;;;;;;5078689;28;20483;-50
2023/03/19 08:53:19;;;;;;;12.00;8.50;;;9.10;55.10;;;;;;5074730;28;21019;-50
2023/03/19 08:55:51;;;;;;;9.90;8.30;;;9.10;54.70;;;;;;5065227;28;21142;-50
2023/03/19 08:58:18;;;;;;;9.67;8.40;;;9.10;53.10;;;;;;5056410;28;20517;-50
2023/03/19 09:00:45;;;;;;;16.37;9.53;;;9.10;51.40;;;;;;5062099;28;20520;-50
2023/03/19 09:03:12;;;;;;;11.30;8.90;;;9.10;50.70;;;;;;5067442;28;20496;-50
2023/03/19 09:05:39;;;;;;;10.53;8.60;;;9.00;52.00;;;;;;5062824;28;21018;-50
2023/03/19 09:08:06;;;;;;;9.90;9.00;;;9.00;51.80;;;;;;5073382;28;20562;-50
2023/03/19 09:10:33;;;;;;;10.07;8.80;;;9.00;52.20;;;;;;5075916;28;20469;-51
2023/03/19 09:13:00;;;;;;;11.60;9.90;;;9.00;53.30;;;;;;5056403;28;20513;-51
2023/03/19 09:15:26;;;;;;;15.23;10.70;;;8.90;54.00;;;;;;5066334;28;20539;-50
2023/03/19 09:17:53;;;;;;;16.23;11.40;;;8.90;54.80;;;;;;5080488;28;20491;-51
2023/03/19 09:20:21;;;;;;;12.17;10.87;;;8.90;55.00;;;;;;5067743;28;20485;-51
2023/03/19 09:22:48;;;;;;;12.60;10.90;;;9.00;57.40;;;;;;5060952;28;21017;-50
2023/03/19 09:25:14;;;;;;;13.50;11.33;;;9.00;57.30;;;;;;5060596;28;20582;-50
2023/03/19 09:27:41;;;;;;;13.70;11.10;;;9.00;54.60;;;;;;5070665;28;20484;-51
2023/03/19 09:30:09;;;;;;;16.27;11.70;;;8.90;52.50;;;;;;5075374;28;20519;-50
2023/03/19 09:32:36;;;;;;;18.00;11.40;;;8.90;53.00;;;;;;5065141;28;20442;-53
2023/03/19 09:35:03;;;;;;;17.27;12.33;;;8.90;53.20;;;;;;5070011;28;20458;-56
2023/03/19 09:37:31;;;;;;;14.50;12.03;;;8.90;50.20;;;;;;5061735;28;20976;-56
2023/03/19 09:39:57;;;;;;;14.33;12.83;;;8.90;51.20;;;;;;5058071;28;20469;-56
2023/03/19 09:42:48;;;;;;;17.80;12.97;;;9.00;49.90;;;;;;5079052;28;20489;-50
2023/03/19 09:45:17;;;;;;;17.23;12.73;;;9.00;49.20;;;;;;5064073;28;20497;-50
2023/03/19 09:47:47;;;;;;;14.10;11.60;;;9.10;48.70;;;;;;5053977;28;21244;-50
2023/03/19 09:50:17;;;;;;;14.90;12.63;;;9.10;46.80;;;;;;5053379;28;20824;-50
2023/03/19 09:52:48;;;;;;;22.13;13.60;;;9.10;44.50;;;;;;5065912;28;20447;-50
2023/03/19 09:55:29;;;;;;;15.50;12.83;;;9.20;41.90;;;;;;5056729;28;20520;-50
2023/03/19 09:57:57;;;;;;;14.83;13.17;;;9.30;43.30;;;;;;5065717;28;20480;-51
2023/03/19 10:00:26;;;;;;;14.20;11.47;;;9.30;37.90;;;;;;5064930;28;20477;-50
2023/03/19 10:02:58;;;;;;;16.23;12.67;;;9.40;39.90;;;;;;5075752;28;20990;-49
2023/03/19 10:05:32;;;;;;;15.77;12.97;;;9.50;36.40;;;;;;5059845;28;20457;-51
2023/03/19 10:08:22;;;;;;;15.80;12.00;;;9.50;29.20;;;;;;5094157;22;20485;-51
2023/03/19 10:10:56;;;;;;;16.20;11.80;;;9.70;30.70;;;;;;5074968;28;20438;-51
2023/03/19 10:13:36;;;;;;;15.00;12.17;;;9.90;31.70;;;;;;5063564;28;20954;-51
2023/03/19 10:16:05;;;;;;;16.47;12.73;;;10.00;28.70;;;;;;5066296;28;20526;-51
2023/03/19 10:18:38;;;;;;;15.30;11.30;;;10.00;24.60;;;;;;5067198;28;21884;-51
2023/03/19 10:21:09;;;;;;;14.50;11.97;;;10.20;25.10;;;;;;5072117;28;20480;-51
2023/03/19 10:23:44;;;;;;;14.77;11.17;;;10.20;22.20;;;;;;5075460;28;20467;-51
2023/03/19 10:26:13;;;;;;;17.40;11.77;;;10.20;21.40;;;;;;5069703;28;20516;-51
2023/03/19 10:28:43;;;;;;;11.87;10.67;;;10.30;21.70;;;;;;5061743;28;20531;-50
2023/03/19 10:31:24;;;;;;;13.07;11.77;;;10.30;20.20;;;;;;5057653;28;20454;-51
2023/03/19 10:33:57;;;;;;;15.20;11.30;;;10.30;20.50;;;;;;5072052;28;20465;-51
2023/03/19 10:36:30;;;;;;;10.77;9.67;;;10.40;20.50;;;;;;5076978;28;20457;-51
2023/03/19 10:38:58;;;;;;;11.97;9.90;;;10.60;77.70;;;;;;5061884;28;20893;-52
2023/03/19 10:41:34;;;;;;;11.23;9.53;;;10.70;91.10;;;;;;5054174;28;20488;-50
2023/03/19 10:44:04;;;;;;;12.43;9.23;;;10.70;99.90;;;;;;5057220;28;21772;-50
2023/03/19 10:46:37;;;;;;;13.97;9.70;;;10.90;99.90;;;;;;5063577;28;20511;-51
2023/03/19 10:49:04;;;;;;;9.70;8.70;;;11.00;99.90;;;;;;5062177;28;20535;-50
2023/03/19 10:51:32;;;;;;;12.00;9.77;;;10.90;99.90;;;;;;5068593;28;20989;-50
2023/03/19 10:54:00;;;;;;;11.00;9.90;;;11.20;99.90;;;;;;5062211;28;20497;-50
2023/03/19 10:56:33;;;;;;;11.17;9.50;;;11.30;99.90;;;;;;5057018;28;20563;-50
2023/03/19 10:59:01;;;;;;;11.30;8.73;;;11.50;99.90;;;;;;5061889;28;20513;-50
2023/03/19 11:01:33;;;;;;;10.30;8.73;;;11.50;99.90;;;;;;5058042;28;20563;-50
2023/03/19 11:04:01;;;;;;;12.47;9.00;;;11.60;99.90;;;;;;5064505;28;20461;-50
2023/03/19 11:06:32;;;;;;;9.73;8.80;;;11.70;99.90;;;;;;5078708;28;20461;-51
2023/03/19 11:09:01;;;;;;;12.53;9.30;;;11.80;99.90;;;;;;5080499;28;20524;-50
2023/03/19 11:11:34;;;;;;;8.60;7.73;;;11.80;99.90;;;;;;5062747;28;20462;-50
2023/03/19 11:14:08;;;;;;;15.90;9.20;;;11.80;99.90;;;;;;5055111;28;20461;-51
2023/03/19 11:16:47;;;;;;;9.47;8.53;;;11.80;99.90;;;;;;5055411;28;20485;-50
2023/03/19 11:19:20;;;;;;;12.07;9.70;;;11.90;99.90;;;;;;5072528;28;21020;-50
2023/03/19 11:21:59;;;;;;;9.97;8.83;;;11.80;21.40;;;;;;5074463;28;20538;-50
2023/03/19 11:24:31;;;;;;;9.07;8.17;;;11.90;92.00;;;;;;5053621;28;20458;-49
2023/03/19 11:26:58;;;;;;;9.60;8.60;;;11.90;20.30;;;;;;5050152;28;20454;-50
2023/03/19 11:29:26;;;;;;;13.60;7.93;;;12.00;88.80;;;;;;5059701;28;20531;-50
2023/03/19 11:32:01;;;;;;;10.23;8.37;;;12.00;74.80;;;;;;5058347;28;20462;-50
2023/03/19 11:34:35;;;;;;;10.47;9.30;;;12.00;76.70;;;;;;5063818;28;20947;-50
2023/03/19 11:37:11;;;;;;;10.70;9.70;;;12.10;86.30;;;;;;5063443;28;20543;-51
2023/03/19 11:39:49;;;;;;;10.07;9.07;;;12.10;73.40;;;;;;5059414;28;20999;-50
2023/03/19 11:42:55;;;;;;;14.60;8.60;;;12.00;35.40;;;;;;5057689;28;20482;-50
2023/03/19 11:45:30;;;;;;;11.30;8.70;;;12.00;28.20;;;;;;5062425;28;20457;-51
2023/03/19 11:48:11;;;;;;;11.70;9.33;;;12.20;26.90;;;;;;5072529;28;20607;-50
2023/03/19 11:50:49;;;;;;;10.53;9.43;;;12.30;28.50;;;;;;5059058;28;20544;-50
2023/03/19 11:53:24;;;;;;;11.90;10.43;;;12.40;29.40;;;;;;5053438;28;21161;-50
2023/03/19 11:56:00;;;;;;;11.53;10.43;;;12.40;36.80;;;;;;5051708;28;20513;-50
2023/03/19 11:58:58;;;;;;;13.90;11.73;;;12.50;35.20;;;;;;5064176;28;20936;-50
2023/03/19 12:01:40;;;;;;;11.00;9.73;;;12.70;41.30;;;;;;5063649;28;20530;-51
2023/03/19 12:04:26;;;;;;;11.63;10.43;;;12.70;71.20;;;;;;5058119;28;20462;-50
2023/03/19 12:07:01;;;;;;;11.10;10.00;;;12.90;57.30;;;;;;5061718;28;21036;-50
2023/03/19 12:09:35;;;;;;;12.73;10.50;;;13.00;69.60;;;;;;5065692;28;20485;-51
2023/03/19 12:12:14;;;;;;;12.23;10.93;;;13.10;69.60;;;;;;5070379;28;20537;-50
2023/03/19 12:14:53;;;;;;;11.50;10.40;;;13.10;99.90;;;;;;5055547;28;20488;-50
2023/03/19 12:17:34;;;;;;;13.40;11.37;;;13.20;87.60;;;;;;5054223;28;20881;-50
2023/03/19 12:20:17;;;;;;;11.87;10.67;;;13.00;94.80;;;;;;5062808;28;20465;-50
2023/03/19 12:22:59;;;;;;;14.17;10.90;;;12.80;92.80;;;;;;5065587;28;20484;-50
2023/03/19 12:25:37;;;;;;;13.93;11.20;;;12.80;95.00;;;;;;5057917;28;20462;-50
2023/03/19 12:28:13;;;;;;;13.43;11.00;;;12.60;98.60;;;;;;5070611;28;20477;-50
2023/03/19 12:30:44;;;;;;;18.37;12.63;;;12.60;87.40;;;;;;5054342;28;20859;-50
2023/03/19 12:33:26;;;;;;;14.20;10.90;;;12.80;86.00;;;;;;5058973;28;20464;-50
2023/03/19 12:35:56;;;;;;;13.83;11.00;;;13.30;77.90;;;;;;5057520;28;20542;-50
2023/03/19 12:38:27;;;;;;;11.90;9.83;;;14.00;99.90;;;;;;5060125;28;20506;-50
2023/03/19 12:40:57;;;;;;;14.73;11.00;;;14.10;99.90;;;;;;5059732;28;20539;-50
2023/03/19 12:43:28;;;;;;;10.90;9.50;;;14.60;99.90;;;;;;5063564;28;20544;-50
2023/03/19 12:45:59;;;;;;;10.70;9.17;;;14.60;99.90;;;;;;5056848;28;20517;-51
2023/03/19 12:48:29;;;;;;;10.93;9.47;;;15.80;34.60;;;;;;5063049;28;20474;-50